Datum - Zeit
Temperatur 2mTemperatur 5cmTaupunktFeuchteSolar Wind aus Richtung WindböenLuftdruck (QFF)RegenRegenstärkeTrend
08.05.2026 - 00.00Uhr3.4 km/hSüd-SO6.5 km/h1010.0 hPawechselhaft
08.05.2026 - 00.05Uhr2.2 km/hSüd-SO4.7 km/h1009.1 hPawechselhaft
08.05.2026 - 00.10Uhr1.5 km/hSüd-SW6.5 km/h1008.0 hPawechselhaft
08.05.2026 - 00.15Uhr1.4 km/hWest-SW3.2 km/h1010.6 hPawechselhaft
08.05.2026 - 00.20Uhr2.0 km/hWest-SW4.7 km/h1010.6 hPawechselhaft
08.05.2026 - 00.25Uhr2.4 km/hSüd-SW4.7 km/h1009.1 hPawechselhaft
08.05.2026 - 00.30Uhr1.4 km/hSüd-SW3.2 km/h1010.5 hPawechselhaft
08.05.2026 - 00.35Uhr1.9 km/hSüd-SW4.7 km/h1009.8 hPawechselhaft
08.05.2026 - 00.40Uhr0.8 km/hSüd-SW3.2 km/h1009.8 hPawechselhaft
08.05.2026 - 00.45Uhr3.0 km/hSüd-SW4.7 km/h1009.8 hPawechselhaft
08.05.2026 - 00.50Uhr1.7 km/hSüdwesten4.7 km/h1010.5 hPawechselhaft
08.05.2026 - 00.55Uhr1.7 km/hSüdwesten4.7 km/h1007.8 hPawechselhaft
08.05.2026 - 01.00Uhr1.6 km/hSüd-SW4.7 km/h1007.7 hPawechselhaft
08.05.2026 - 01.05Uhr2.2 km/hSüd-SW4.7 km/h1007.7 hPawechselhaft
08.05.2026 - 01.10Uhr0.3 km/hSüd-SW1.4 km/h1008.8 hPawechselhaft
08.05.2026 - 01.15Uhr0.8 km/hSüd-SW4.7 km/h1009.6 hPawechselhaft
08.05.2026 - 01.20Uhr2.5 km/hSüd-SW4.7 km/h1008.7 hPawechselhaft
08.05.2026 - 01.25Uhr1.1 km/hSüd-SW3.2 km/h1010.1 hPawechselhaft
08.05.2026 - 01.30Uhr3.2 km/hSüd-SW4.7 km/h1010.1 hPawechselhaft
08.05.2026 - 01.35Uhr2.3 km/hSüden3.2 km/h1009.5 hPawechselhaft
08.05.2026 - 01.40Uhr3.6 km/hSüd-SW4.7 km/h1009.4 hPawechselhaft
08.05.2026 - 01.45Uhr1.5 km/hSüdwesten4.7 km/h1010.6 hPawechselhaft
08.05.2026 - 01.50Uhr1.4 km/hSüdwesten3.2 km/h1010.1 hPawechselhaft
08.05.2026 - 01.55Uhr2.3 km/hSüdwesten6.5 km/h1007.4 hPawechselhaft
08.05.2026 - 02.00Uhr1.1 km/hWesten4.7 km/h1010.5 hPawechselhaft
08.05.2026 - 02.05Uhr2.5 km/hWest-SW6.5 km/h1009.3 hPawechselhaft
08.05.2026 - 02.10Uhr2.8 km/hWest-SW6.5 km/h1005.7 hPawechselhaft
08.05.2026 - 02.15Uhr2.4 km/hWesten6.5 km/h1009.2 hPawechselhaft
08.05.2026 - 02.20Uhr2.9 km/hWest-SW4.7 km/h1010.4 hPawechselhaft
08.05.2026 - 02.25Uhr2.6 km/hWesten4.7 km/h1009.2 hPawechselhaft
08.05.2026 - 02.30Uhr2.1 km/hSüdwesten4.7 km/h1010.3 hPawechselhaft
08.05.2026 - 02.35Uhr0.3 km/hSüdwesten1.4 km/h1009.8 hPawechselhaft
08.05.2026 - 02.40Uhr2.3 km/hSüdwesten4.7 km/h1008.2 hPawechselhaft
08.05.2026 - 02.45Uhr1.0 km/hSüdwesten4.7 km/h1009.1 hPawechselhaft
08.05.2026 - 02.50Uhr2.2 km/hSüdwesten6.5 km/h1009.1 hPawechselhaft
08.05.2026 - 02.55Uhr1.3 km/hSüdwesten4.7 km/h1007.1 hPawechselhaft
08.05.2026 - 03.00Uhr2.8 km/hSüdwesten6.5 km/h1009.1 hPawechselhaft
08.05.2026 - 03.05Uhr3.1 km/hSüd-SW6.5 km/h1008.1 hPawechselhaft
08.05.2026 - 03.10Uhr4.2 km/hSüd-SW6.5 km/h1005.5 hPawechselhaft
08.05.2026 - 03.15Uhr5.8 km/hSüd-SW7.9 km/h1009.0 hPawechselhaft
08.05.2026 - 03.20Uhr3.6 km/hSüdwesten7.9 km/h1008.2 hPawechselhaft
08.05.2026 - 03.25Uhr1.5 km/hSüdwesten4.7 km/h1009.0 hPawechselhaft
08.05.2026 - 03.30Uhr7.3 °C6 °C90.0 %2.5 km/hSüden6.5 km/h1008.2 hPa0.0 mm0.0 mm/hwechselhaft
08.05.2026 - 03.35Uhr7.1 °C6 °C90.0 %2.6 km/hOst-SO6.5 km/h1009.0 hPa0.0 mm0.0 mm/hwechselhaft
08.05.2026 - 03.40Uhr7.0 °C6 °C90.3 %4.1 km/hSüd-SO6.5 km/h1008.2 hPa0.0 mm0.0 mm/hwechselhaft
08.05.2026 - 03.45Uhr7.0 °C6 °C91.0 %3.3 km/hSüd-SO4.7 km/h1008.3 hPa0.0 mm0.0 mm/hwechselhaft
08.05.2026 - 03.50Uhr7.0 °C6 °C91.0 %2.8 km/hSüd-SO7.9 km/h1007.1 hPa0.0 mm0.0 mm/hwechselhaft
08.05.2026 - 03.55Uhr7.0 °C6 °C91.0 %4.5 km/hSüden7.9 km/h1009.8 hPa0.0 mm0.0 mm/hwechselhaft
08.05.2026 - 04.00Uhr6.1 km/hSüd-SW9.7 km/h1008.2 hPawechselhaft
08.05.2026 - 04.05Uhr5.1 km/hSüd-SW7.9 km/h1009.1 hPawechselhaft
08.05.2026 - 04.10Uhr4.7 km/hSüd-SW6.5 km/h1007.1 hPawechselhaft
08.05.2026 - 04.15Uhr2.5 km/hSüdwesten6.5 km/h1009.0 hPawechselhaft
08.05.2026 - 04.20Uhr1.3 km/hSüdwesten4.7 km/h1007.1 hPawechselhaft
08.05.2026 - 04.25Uhr2.1 km/hSüdwesten4.7 km/h1007.1 hPawechselhaft
08.05.2026 - 04.30Uhr2.7 km/hWest-SW4.7 km/h1009.1 hPawechselhaft
08.05.2026 - 04.35Uhr2.9 km/hWest-SW4.7 km/h1009.1 hPawechselhaft
08.05.2026 - 04.40Uhr1.7 km/hWest-SW3.2 km/h1005.5 hPawechselhaft
08.05.2026 - 04.45Uhr1.7 km/hWest-SW4.7 km/h1008.2 hPawechselhaft
08.05.2026 - 04.50Uhr0.6 km/hWest-SW3.2 km/h1009.1 hPawechselhaft
08.05.2026 - 04.55Uhr0.1 km/hWest-SW1.4 km/h1008.2 hPawechselhaft
08.05.2026 - 05.00Uhr1.0 km/hWest-SW4.7 km/h1009.1 hPawechselhaft
08.05.2026 - 05.05Uhr1.4 km/hWest-SW3.2 km/h1009.1 hPawechselhaft
08.05.2026 - 05.10Uhr2.9 km/hSüd-SW6.5 km/h1008.3 hPawechselhaft
08.05.2026 - 05.15Uhr0.6 km/hSüdwesten3.2 km/h1008.3 hPawechselhaft
08.05.2026 - 05.20Uhr0.7 km/hSüdwesten3.2 km/h1009.1 hPawechselhaft
08.05.2026 - 05.25Uhr0.8 km/hSüdwesten3.2 km/h1009.1 hPawechselhaft
08.05.2026 - 05.30Uhr2.3 km/hWesten4.7 km/h1007.1 hPawechselhaft
08.05.2026 - 05.35Uhr0.7 km/hWest-SW3.2 km/h1009.1 hPawechselhaft
08.05.2026 - 05.40Uhr0.4 km/hWest-SW1.4 km/h1008.4 hPawechselhaft
08.05.2026 - 05.45Uhr0.6 km/hWest-SW3.2 km/h1008.3 hPawechselhaft
08.05.2026 - 05.50Uhr2.9 km/hWesten4.7 km/h1008.4 hPawechselhaft
08.05.2026 - 05.55Uhr2.7 km/hWesten6.5 km/h1007.3 hPawechselhaft
08.05.2026 - 06.00Uhr2.2 km/hWesten3.2 km/h1005.7 hPawechselhaft
08.05.2026 - 06.05Uhr3.0 km/hWest-SW4.7 km/h1008.4 hPawechselhaft
08.05.2026 - 06.10Uhr8.9 °C7 °C91.0 %1.1 km/hWesten4.7 km/h1009.3 hPa0.0 mm0.0 mm/hwechselhaft
08.05.2026 - 06.15Uhr9.1 °C8 °C91.0 %1.1 km/hWest-SW3.2 km/h1009.4 hPa0.0 mm0.0 mm/hwechselhaft
08.05.2026 - 06.20Uhr9.2 °C8 °C91.0 %2.4 km/hWest-SW4.7 km/h1008.6 hPa0.0 mm0.0 mm/hwechselhaft
08.05.2026 - 06.25Uhr9.2 °C8 °C90.6 %4.0 km/hWesten9.7 km/h1005.8 hPa0.0 mm0.0 mm/hwechselhaft
08.05.2026 - 06.30Uhr9.3 °C8 °C90.0 %1.8 km/hWest-SW4.7 km/h1010.0 hPa0.0 mm0.0 mm/hwechselhaft
08.05.2026 - 06.35Uhr9.3 °C8 °C90.0 %3.3 km/hWest-SW6.5 km/h1008.7 hPa0.0 mm0.0 mm/hwechselhaft
08.05.2026 - 06.40Uhr9.3 °C8 °C90.0 %4.4 km/hWest-NW6.5 km/h1007.6 hPa0.0 mm0.0 mm/hwechselhaft
08.05.2026 - 06.45Uhr4.1 km/hWest-NW6.5 km/h1008.8 hPawechselhaft
08.05.2026 - 06.50Uhr1.7 km/hWesten4.7 km/h1008.8 hPawechselhaft
08.05.2026 - 06.55Uhr2.3 km/hWesten4.7 km/h1009.6 hPawechselhaft
08.05.2026 - 07.00Uhr9.7 °C8 °C89.0 %3.2 km/hWest-NW4.7 km/h1010.3 hPa0.0 mm0.0 mm/hwechselhaft
08.05.2026 - 07.05Uhr9.8 °C8 °C88.6 %1.5 km/hWest-SW4.7 km/h1008.8 hPa0.0 mm0.0 mm/hwechselhaft
08.05.2026 - 07.10Uhr9.8 °C8 °C88.0 %0.3 km/hWest-SW3.2 km/h1008.8 hPa0.0 mm0.0 mm/hwechselhaft
08.05.2026 - 07.15Uhr9.7 °C8 °C88.0 %1.3 km/hWesten4.7 km/h1009.8 hPa0.0 mm0.0 mm/hwechselhaft
08.05.2026 - 07.20Uhr9.8 °C8 °C87.4 %1.0 km/hSüd-SW3.2 km/h1010.4 hPa0.0 mm0.0 mm/hwechselhaft
08.05.2026 - 07.25Uhr9.8 °C8 °C87.0 %0.7 km/hSüd-SO3.2 km/h1008.9 hPa0.0 mm0.0 mm/hwechselhaft
08.05.2026 - 07.30Uhr9.8 °C8 °C86.8 %0.3 km/hSüden1.4 km/h1009.7 hPa0.0 mm0.0 mm/hwechselhaft
08.05.2026 - 07.35Uhr10.0 °C8 °C87.0 %1.9 km/hSüdwesten4.7 km/h1009.8 hPa0.0 mm0.0 mm/hwechselhaft
08.05.2026 - 07.40Uhr10.0 °C8 °C87.0 %3.0 km/hWest-NW6.5 km/h1009.8 hPa0.0 mm0.0 mm/hwechselhaft
08.05.2026 - 07.45Uhr10.0 °C8 °C87.0 %2.1 km/hWest-SW4.7 km/h1009.1 hPa0.0 mm0.0 mm/hwechselhaft
08.05.2026 - 07.50Uhr4.1 km/hWesten6.5 km/h1009.0 hPawechselhaft
08.05.2026 - 07.55Uhr5.3 km/hWest-NW9.7 km/h1009.9 hPawechselhaft
08.05.2026 - 08.00Uhr5.1 km/hWest-NW6.5 km/h1009.1 hPawechselhaft
08.05.2026 - 08.05Uhr4.3 km/hWest-NW6.5 km/h1010.1 hPawechselhaft
08.05.2026 - 08.10Uhr5.3 km/hWest-NW9.7 km/h1009.2 hPawechselhaft
08.05.2026 - 08.15Uhr1.0 km/hWest-NW3.2 km/h1010.8 hPawechselhaft
08.05.2026 - 08.20Uhr0.3 km/hWest-NW3.2 km/h1006.5 hPawechselhaft
08.05.2026 - 08.25Uhr2.3 km/hSüd-SW6.5 km/h1010.8 hPawechselhaft
08.05.2026 - 08.30Uhr2.6 km/hSüden4.7 km/h1010.2 hPawechselhaft
08.05.2026 - 08.35Uhr1.5 km/hOst-SO6.5 km/h1008.2 hPawechselhaft
08.05.2026 - 08.40Uhr5.5 km/hNordwesten11.2 km/h1008.2 hPawechselhaft
08.05.2026 - 08.45Uhr5.9 km/hNordwesten9.7 km/h1010.2 hPawechselhaft
08.05.2026 - 08.50Uhr5.8 km/hWest-NW11.2 km/h1010.2 hPawechselhaft
08.05.2026 - 08.55Uhr8.7 km/hWest-NW13.0 km/h1009.4 hPawechselhaft
08.05.2026 - 09.00Uhr4.5 km/hWest-NW11.2 km/h1009.3 hPawechselhaft
08.05.2026 - 09.05Uhr3.8 km/hNordwesten6.5 km/h1010.2 hPawechselhaft
08.05.2026 - 09.10Uhr1.1 km/hWest-NW4.7 km/h1009.3 hPawechselhaft
08.05.2026 - 09.15Uhr1.2 km/hSüd-SO3.2 km/h1010.2 hPawechselhaft
08.05.2026 - 09.20Uhr1.2 km/hSüd-SO6.5 km/h1009.3 hPawechselhaft
08.05.2026 - 09.25Uhr5.1 km/hWest-NW9.7 km/h1008.3 hPawechselhaft
08.05.2026 - 09.30Uhr0.7 km/hNordwesten3.2 km/h1009.4 hPawechselhaft
08.05.2026 - 09.35Uhr2.8 km/hWest-NW6.5 km/h1009.4 hPawechselhaft
08.05.2026 - 09.40Uhr3.7 km/hSüd-SO6.5 km/h1010.9 hPawechselhaft
08.05.2026 - 09.45Uhr1.4 km/hSüd-SO3.2 km/h1008.3 hPawechselhaft
08.05.2026 - 09.50Uhr2.4 km/hNord-NW7.9 km/h1009.4 hPawechselhaft
08.05.2026 - 09.55Uhr3.0 km/hNorden7.9 km/h1011.0 hPawechselhaft
08.05.2026 - 10.00Uhr11.6 °C9 °C84.0 %2.8 km/hNordosten6.5 km/h1009.5 hPa0.0 mm0.0 mm/hwechselhaft
08.05.2026 - 10.05Uhr11.5 °C9 °C83.5 %3.5 km/hNorden6.5 km/h1010.3 hPa0.0 mm0.0 mm/hwechselhaft
08.05.2026 - 10.10Uhr11.6 °C9 °C84.0 %3.3 km/hNorden6.5 km/h1009.4 hPa0.0 mm0.0 mm/hwechselhaft
08.05.2026 - 10.15Uhr11.6 °C9 °C84.0 %3.1 km/hNordwesten7.9 km/h1010.3 hPa0.0 mm0.0 mm/hwechselhaft
08.05.2026 - 10.20Uhr11.6 °C9 °C84.0 %4.2 km/hNordwesten6.5 km/h1011.0 hPa0.0 mm0.0 mm/hwechselhaft
08.05.2026 - 10.25Uhr11.8 °C9 °C84.0 %2.7 km/hNordwesten6.5 km/h1010.4 hPa0.0 mm0.0 mm/hwechselhaft
08.05.2026 - 10.30Uhr11.9 °C9 °C82.3 %2.3 km/hNord-NW6.5 km/h1011.5 hPa0.0 mm0.0 mm/hwechselhaft
08.05.2026 - 10.35Uhr11.9 °C9 °C82.0 %4.7 km/hNorden7.9 km/h1008.5 hPa0.0 mm0.0 mm/hwechselhaft
08.05.2026 - 10.40Uhr11.9 °C9 °C82.0 %3.0 km/hNorden7.9 km/h1011.1 hPa0.0 mm0.0 mm/hwechselhaft
08.05.2026 - 10.45Uhr4.0 km/hNordosten6.5 km/h1008.5 hPawechselhaft
08.05.2026 - 10.50Uhr2.6 km/hNord-NW6.5 km/h1009.5 hPawechselhaft
08.05.2026 - 10.55Uhr4.3 km/hOst-NO9.7 km/h1010.4 hPawechselhaft
08.05.2026 - 11.00Uhr2.4 km/hWest-NW7.9 km/h1009.5 hPawechselhaft
08.05.2026 - 11.05Uhr4.2 km/hWest-NW11.2 km/h1008.4 hPawechselhaft
08.05.2026 - 11.10Uhr3.3 km/hSüd-SW6.5 km/h1011.1 hPawechselhaft
08.05.2026 - 11.15Uhr3.4 km/hNord-NW9.7 km/h1009.6 hPawechselhaft
08.05.2026 - 11.20Uhr4.5 km/hWesten9.7 km/h1011.1 hPawechselhaft
08.05.2026 - 11.25Uhr5.0 km/hWesten11.2 km/h1011.0 hPawechselhaft
08.05.2026 - 11.30Uhr5.1 km/hNorden11.2 km/h1008.4 hPawechselhaft
08.05.2026 - 11.35Uhr4.7 km/hNord-NO11.2 km/h1011.0 hPawechselhaft
08.05.2026 - 11.40Uhr3.6 km/hNorden9.7 km/h1011.5 hPawechselhaft
08.05.2026 - 11.45Uhr4.4 km/hNorden11.2 km/h1009.4 hPa0.0 mm0.0 mm/hwechselhaft
08.05.2026 - 11.50Uhr4.4 km/hNorden11.2 km/h1009.3 hPa0.0 mm0.0 mm/hwechselhaft
08.05.2026 - 11.55Uhr5.2 km/hNord-NO11.2 km/h1008.3 hPa0.0 mm0.0 mm/hwechselhaft
08.05.2026 - 12.00Uhr4.1 km/hNorden9.7 km/h1009.3 hPawechselhaft
08.05.2026 - 12.05Uhr5.7 km/hNord-NO11.2 km/h1010.0 hPawechselhaft
08.05.2026 - 12.10Uhr7.2 km/hNord-NO11.2 km/h1009.2 hPawechselhaft
08.05.2026 - 12.15Uhr16.7 °C12 °C71.9 %6.5 km/hNord-NO11.2 km/h1010.1 hPa0.0 mm0.0 mm/hwechselhaft
08.05.2026 - 12.20Uhr16.6 °C11 °C70.0 %5.2 km/hNord-NO9.7 km/h1011.2 hPa0.0 mm0.0 mm/hwechselhaft
08.05.2026 - 12.25Uhr16.4 °C11 °C70.2 %5.6 km/hNordosten11.2 km/h1009.2 hPa0.0 mm0.0 mm/hwechselhaft
08.05.2026 - 12.30Uhr16.7 °C11 °C69.4 %6.7 km/hNordosten11.2 km/h1011.1 hPa0.0 mm0.0 mm/hwechselhaft
08.05.2026 - 12.35Uhr17.0 °C12 °C70.2 %5.7 km/hNordosten9.7 km/h1010.5 hPa0.0 mm0.0 mm/hwechselhaft
08.05.2026 - 12.40Uhr17.1 °C12 °C70.0 %5.3 km/hNordosten9.7 km/h1007.8 hPa0.0 mm0.0 mm/hwechselhaft
08.05.2026 - 12.45Uhr17.1 °C11 °C69.1 %4.6 km/hNordosten11.2 km/h1009.8 hPa0.0 mm0.0 mm/hwechselhaft
08.05.2026 - 12.50Uhr17.3 °C12 °C70.2 %4.4 km/hNord-NO9.7 km/h1007.7 hPa0.0 mm0.0 mm/hwechselhaft
08.05.2026 - 12.55Uhr17.4 °C12 °C69.7 %4.5 km/hNord-NW9.7 km/h1008.8 hPa0.0 mm0.0 mm/hwechselhaft
08.05.2026 - 13.00Uhr17.5 °C12 °C68.5 %3.7 km/hNord-NW7.9 km/h1010.2 hPa0.0 mm0.0 mm/hwechselhaft
08.05.2026 - 13.05Uhr17.6 °C11 °C65.0 %4.3 km/hNord-NW9.7 km/h1010.3 hPa0.0 mm0.0 mm/hwechselhaft
08.05.2026 - 13.10Uhr17.7 °C11 °C65.0 %3.6 km/hNord-NW6.5 km/h1008.8 hPa0.0 mm0.0 mm/hwechselhaft
08.05.2026 - 13.15Uhr17.7 °C11 °C65.0 %3.3 km/hNord-NO6.5 km/h1008.7 hPa0.0 mm0.0 mm/hwechselhaft
08.05.2026 - 13.20Uhr3.7 km/hNorden7.9 km/h1008.7 hPawechselhaft
08.05.2026 - 13.25Uhr4.3 km/hNord-NO9.7 km/h1009.5 hPawechselhaft
08.05.2026 - 13.30Uhr17.8 °C11 °C65.8 %5.0 km/hNord-NO11.2 km/h1005.9 hPa0.0 mm0.0 mm/hwechselhaft
08.05.2026 - 13.35Uhr17.8 °C11 °C65.9 %6.1 km/hNord-NO11.2 km/h1007.5 hPa0.0 mm0.0 mm/hwechselhaft
08.05.2026 - 13.40Uhr18.1 °C11 °C64.7 %5.2 km/hNord-NO9.7 km/h1007.4 hPa0.0 mm0.0 mm/hwechselhaft
08.05.2026 - 13.45Uhr17.9 °C10 °C61.9 %2.3 km/hNord-NO7.9 km/h1009.4 hPa0.0 mm0.0 mm/hwechselhaft
08.05.2026 - 13.50Uhr17.4 °C11 °C65.7 %2.9 km/hWest-NW6.5 km/h1010.0 hPa0.0 mm0.0 mm/hwechselhaft
08.05.2026 - 13.55Uhr17.6 °C10 °C61.9 %2.3 km/hNord-NW7.9 km/h1009.4 hPa0.0 mm0.0 mm/hwechselhaft
08.05.2026 - 14.00Uhr17.9 °C12 °C66.7 %4.2 km/hNordosten7.9 km/h1008.5 hPa0.0 mm0.0 mm/hwechselhaft
08.05.2026 - 14.05Uhr18.3 °C12 °C66.2 %3.6 km/hNordosten7.9 km/h1007.2 hPa0.0 mm0.0 mm/hwechselhaft
08.05.2026 - 14.10Uhr19.0 °C13 °C67.1 %4.5 km/hNorden9.7 km/h1009.2 hPa0.0 mm0.0 mm/hwechselhaft
08.05.2026 - 14.15Uhr19.1 °C12 °C65.0 %4.6 km/hNorden9.7 km/h1008.3 hPa0.0 mm0.0 mm/hwechselhaft
08.05.2026 - 14.20Uhr19.1 °C12 °C65.0 %3.1 km/hNorden7.9 km/h1009.0 hPa0.0 mm0.0 mm/hwechselhaft
08.05.2026 - 14.25Uhr19.1 °C12 °C65.0 %5.3 km/hNorden11.2 km/h1008.2 hPa0.0 mm0.0 mm/hwechselhaft
08.05.2026 - 14.30Uhr5.2 km/hNord-NW11.2 km/h1009.0 hPawechselhaft
08.05.2026 - 14.35Uhr4.5 km/hNord-NO9.7 km/h1005.4 hPawechselhaft
08.05.2026 - 14.40Uhr4.0 km/hNorden7.9 km/h1009.0 hPawechselhaft
08.05.2026 - 14.45Uhr4.4 km/hNorden7.9 km/h1008.2 hPawechselhaft
08.05.2026 - 14.50Uhr3.5 km/hNord-NW7.9 km/h1007.0 hPawechselhaft
08.05.2026 - 14.55Uhr2.8 km/hNord-NO9.7 km/h1008.8 hPawechselhaft
08.05.2026 - 15.00Uhr2.4 km/hNordosten6.5 km/h1008.0 hPawechselhaft
08.05.2026 - 15.05Uhr4.8 km/hNorden9.7 km/h1006.8 hPawechselhaft
08.05.2026 - 15.10Uhr5.0 km/hNord-NW11.2 km/h1006.7 hPawechselhaft
08.05.2026 - 15.15Uhr2.8 km/hNord-NW9.7 km/h1008.7 hPawechselhaft
08.05.2026 - 15.20Uhr1.4 km/hNordosten4.7 km/h1006.7 hPawechselhaft
08.05.2026 - 15.25Uhr1.1 km/hNord-NW4.7 km/h1007.8 hPawechselhaft
08.05.2026 - 15.30Uhr2.3 km/hNordosten4.7 km/h1006.5 hPawechselhaft
08.05.2026 - 15.35Uhr2.2 km/hNordosten6.5 km/h1008.3 hPawechselhaft
08.05.2026 - 15.40Uhr3.3 km/hNord-NW9.7 km/h1007.5 hPawechselhaft
08.05.2026 - 15.45Uhr2.9 km/hWesten9.7 km/h1008.2 hPawechselhaft
08.05.2026 - 15.50Uhr4.5 km/hNordwesten11.2 km/h1007.3 hPawechselhaft
08.05.2026 - 15.55Uhr2.9 km/hNord-NO6.5 km/h1007.3 hPawechselhaft
08.05.2026 - 16.00Uhr1.0 km/hNordosten4.7 km/h1008.1 hPaRegen
08.05.2026 - 16.05Uhr3.0 km/hNorden7.9 km/h1006.0 hPaRegen
08.05.2026 - 16.10Uhr3.0 km/hNordosten6.5 km/h1008.0 hPaRegen
08.05.2026 - 16.15Uhr1.6 km/hNordwesten6.5 km/h1008.0 hPaRegen
08.05.2026 - 16.20Uhr1.2 km/hNordosten3.2 km/h1007.8 hPaRegen
08.05.2026 - 16.25Uhr0.5 km/hOsten3.2 km/h1006.9 hPaRegen
08.05.2026 - 16.30Uhr3.1 km/hSüdosten6.5 km/h1006.8 hPaRegen
08.05.2026 - 16.35Uhr3.3 km/hSüdosten6.5 km/h1008.9 hPaRegen
08.05.2026 - 16.40Uhr1.6 km/hSüdosten4.7 km/h1004.0 hPaRegen
08.05.2026 - 16.45Uhr1.1 km/hSüd-SO4.7 km/h1006.6 hPaRegen
08.05.2026 - 16.50Uhr2.1 km/hSüd-SO6.5 km/h1007.4 hPaRegen
08.05.2026 - 16.55Uhr1.5 km/hSüdwesten4.7 km/h1006.5 hPaRegen
08.05.2026 - 17.00Uhr0.6 km/hSüd-SW3.2 km/h1007.3 hPaRegen
08.05.2026 - 17.05Uhr3.8 km/hSüdosten6.5 km/h989.5 hPaRegen